Tiempo atmosférico en la estación meteorológica de Cáseda, Navarra (440 m.)



Fecha
DESCASC
Temp. máxima en grados centígrados (hora)
DESCASC
Temp. mínima en grados centígrados (hora)
DESCASC
Temp. media en grados centígrados
DESCASC
Racha de viento máxima en m/sg (hora)
DESCASC
Velocidad máxima media en intervalos de 10 minutos(hora)
DESCASC
Precipitaciones diarias en mm
DESCASC
Precipitaciones de 00:00 a 06:00 en mm
DESCASC
Precipitaciones de 06:00 a 12:00 en mm
DESCASC
Precipitaciones de 12:00 a 18:00 en mm
DESCASC
Precipitaciones de 18:00 a 24:00 en mm
DESCASC
20-09-2018 32.7 (16:50) 15.7 (08:10) 24.2 7.22 (14:50) 4.44 (15:30) 0 0 0 0 0
19-09-2018 31.8 (17:30) 14.9 (07:50) 23.3 5.83 (18:20) 3.33 (17:40) 0 0 0 0 0
18-09-2018 30.3 (16:50) 18.5 (05:30) 24.4 7.22 (12:40) 4.44 (12:40) 0 0 0 0 0
17-09-2018 31.9 (16:10) 15.6 (08:20) 23.8 8.61 (13:20) 5.83 (13:30) 0 0 0 0 0
16-09-2018 30.7 (17:30) 13.3 (00:00) 22 5.28 (14:40) 3.61 (19:50) 0 0 0 0 0
15-09-2018 26 (14:50) 12.9 (00:00) 19.4 5.56 (15:20) 3.61 (15:20) 0 0 0 0 0
14-09-2018 28.9 (16:20) 12.8 (00:00) 20.8 7.5 (16:30) 4.17 (19:00) 0 0 0 0 0
13-09-2018 25.8 (15:40) 16.7 (00:00) 21.3 7.22 (15:50) 4.44 (11:50) 0 0 0 0 0
12-09-2018 27.7 (16:30) 16.1 (00:00) 21.9 8.06 (18:10) 5 (18:10) 0 0 0 0 0
11-09-2018 28.2 (17:50) 14.1 (00:00) 21.2 8.33 (14:50) 5.28 (14:50) 0 0 0 0 0
10-09-2018 28.2 (17:00) 16.2 (00:00) 22.2 5.28 (12:10) 3.06 (09:30) 0 0 0 0 0
09-09-2018 27.5 (15:50) 15.7 (00:00) 21.6 7.22 (00:20) 4.17 (00:20) 17 17 0 0 0
08-09-2018 30.3 (15:20) 14.6 (00:00) 22.4 13.89 (20:50) 9.17 (20:50) 4 0 0 0 4
07-09-2018 27.3 (17:00) 14.5 (00:00) 20.9 6.94 (19:10) 3.61 (19:30) 0 0 0 0 0
06-09-2018 25.1 (14:40) 15.7 (00:00) 20.4 10.28 (19:00) 6.67 (18:40) 0.2 0.2 0 0 0
05-09-2018 27.1 (15:40) 16.3 (00:00) 21.7 8.89 (18:30) 5 (19:40) 1.2 0.2 0 0 1
04-09-2018 31.7 (17:10) 16.5 (00:00) 24.1 8.61 (16:00) 3.89 (15:10) 1.2 0 0 0 1.2
03-09-2018 30.7 (18:10) 13.1 (00:00) 21.9 6.11 (19:10) 3.33 (15:00) 0 0 0 0 0
02-09-2018 32.2 (15:50) 12.2 (00:00) 22.2 7.5 (19:50) 4.72 (19:40) 0 0 0 0 0
01-09-2018 30.9 (15:40) 13.7 (00:00) 22.3 8.61 (17:10) 4.72 (01:10) 0 0 0 0 0
31-08-2018 27.9 (15:40) 14.5 (00:00) 21.2 10 (20:50) 5.28 (19:30) 0 0 0 0 0
30-08-2018 30 (16:40) 15.8 (00:00) 22.9 7.5 (17:50) 3.89 (17:50) 0 0 0 0 0
29-08-2018 29.4 (16:10) 17.3 (00:00) 23.3 10.83 (18:30) 6.11 (17:10) 0 0 0 0 0
28-08-2018 34.3 (16:40) 17.6 (00:00) 25.9 17.78 (21:40) 12.5 (21:20) 0 0 0 0 0
27-08-2018 34 (17:40) 14.2 (00:00) 24.1 5.28 (14:50) 2.78 (02:20) 0 0 0 0 0
26-08-2018 30.1 (18:30) 12.9 (00:00) 21.5 8.06 (00:10) 4.17 (00:10) 0 0 0 0 0
25-08-2018 24.2 (16:00) 14.9 (00:00) 19.6 12.5 (18:40) 6.67 (17:10) 0 0 0 0 0
24-08-2018 26 (15:20) 17.2 (00:00) 21.6 11.67 (16:50) 6.39 (18:10) 0 0 0 0 0
23-08-2018 -- (--) -- (--) -- -- (--) -- (--) -- -- -- -- 0

Gráficas

Temp. máximas Temp. mínimas Temp. medias Precipitaciones Rachas de viento máximas Velocidades máximas media en intervalos de 10 minutos

Datos horarios

Fecha y hora oficial Temperatura (ºC) Velocidad del viento (km/h) Dirección del viento Racha (km/h) Dirección de racha Precipitación (mm) Presión (hPa) Tendencia (hPa) Humedad (%)
2018-09-21 23:00:00 19.8 11 Norte 23 Norte 0 -- -- 69
2018-09-21 22:00:00 20.2 7 Este 22 Nordeste 0 -- -- 64
2018-09-21 21:00:00 20.7 13 Nordeste 36 Norte 0 -- -- 62
2018-09-21 20:00:00 21.8 13 Norte 30 Norte 0 -- -- 56
2018-09-21 19:00:00 24.2 15 Norte 33 Nordeste 0 -- -- 48
2018-09-21 18:00:00 26.5 18 Norte 36 Norte 0 -- -- 43
2018-09-21 17:00:00 28.2 15 Norte 30 Norte 0 -- -- 37
2018-09-21 16:00:00 27.3 13 Norte 26 Noroeste 0 -- -- 38
2018-09-21 15:00:00 28.5 8 Norte 24 Norte 0 -- -- 38
2018-09-21 14:00:00 27.8 13 Norte 23 Norte 0 -- -- 41
2018-09-21 13:00:00 27 6 Nordeste 15 Este 0 -- -- 51
2018-09-21 12:00:00 25.2 6 Este 16 Sur 0 -- -- 57
2018-09-21 11:00:00 22.9 5 Nordeste 12 Este 0 -- -- 63
2018-09-21 10:00:00 20 3 Nordeste 5 Nordeste 0 -- -- 71
2018-09-21 09:00:00 17.1 2 Noroeste 12 Sur 0 -- -- 78
2018-09-21 08:00:00 15.7 9 Sur 11 Sur 0 -- -- 83
2018-09-21 07:00:00 16.8 6 Sudeste 9 Sudeste 0 -- -- 80
2018-09-21 06:00:00 17.6 3 Nordeste 10 Sudeste 0 -- -- 75
2018-09-21 05:00:00 18 7 Sudoeste 9 Sudoeste 0 -- -- 74
2018-09-21 04:00:00 18.7 5 Sudoeste 10 Sudoeste 0 -- -- 71
2018-09-21 03:00:00 18.8 5 Sudoeste 9 Sudoeste 0 -- -- 70
2018-09-21 02:00:00 19.7 2 Nordeste 8 Sudoeste 0 -- -- 66
2018-09-21 01:00:00 20.7 2 Noroeste 13 Sudoeste 0 -- -- 63
2018-09-21 00:00:00 21.2 4 Oeste 8 Sudoeste 0 -- -- 61
2018-09-20 23:00:00 22.7 5 Oeste 8 Oeste 0 -- -- 56
2018-09-20 22:00:00 24 0 Calma 11 Sur 0 -- -- 53
2018-09-20 21:00:00 25.3 4 Sudoeste 15 Sur 0 -- -- 48
2018-09-20 20:00:00 27 13 Sur 15 Sur 0 -- -- 46
2018-09-20 19:00:00 31.4 7 Sudoeste 13 Sudoeste 0 -- -- 36
2018-09-20 18:00:00 32.3 9 Sudoeste 19 Sudoeste 0 -- -- 32
2018-09-20 17:00:00 32.6 10 Sur 22 Sur 0 -- -- 34
2018-09-20 16:00:00 32.4 14 Sudoeste 26 Sur 0 -- -- 37
2018-09-20 15:00:00 31.5 12 Sur 26 Sur 0 -- -- 39
2018-09-20 14:00:00 29.7 11 Sur 24 Sur 0 -- -- 49
2018-09-20 13:00:00 27 4 Norte 9 Norte 0 -- -- 53
2018-09-20 12:00:00 24.2 3 Norte 6 Noroeste 0 -- -- 57
2018-09-20 11:00:00 21.4 3 Norte 8 Noroeste 0 -- -- 65
2018-09-20 10:00:00 19 3 Noroeste 6 Noroeste 0 -- -- 71
2018-09-20 09:00:00 17.1 0 Calma 4 Sur 0 -- -- 81
2018-09-20 08:00:00 16 0 Calma 10 Sudeste 0 -- -- 82
2018-09-20 07:00:00 16.6 7 Sudeste 13 Sudeste 0 -- -- 80
2018-09-20 06:00:00 16.8 3 Este 11 Sudeste 0 -- -- 81
2018-09-20 05:00:00 17.7 8 Sudeste 10 Sudeste 0 -- -- 83
2018-09-20 04:00:00 18.5 5 Sudeste 12 Sudeste 0 -- -- 75
2018-09-20 03:00:00 19.4 6 Sudeste 12 Este 0 -- -- 75
2018-09-20 02:00:00 20.1 8 Sudeste 14 Sudeste 0 -- -- 76
2018-09-20 01:00:00 21.1 8 Sudeste 12 Sudeste 0 -- -- 72
2018-09-20 00:00:00 21.9 4 Sudeste 12 Este 0 -- -- 68
2018-09-19 23:00:00 22.9 3 Sudeste 8 Sur 0 -- -- 64
2018-09-19 22:00:00 24.2 3 Sudeste 10 Sudoeste 0 -- -- 59
2018-09-19 21:00:00 24.6 2 Sur 12 Norte 0 -- -- 55
2018-09-19 20:00:00 26.6 9 Sur 14 Sur 0 -- -- 49
2018-09-19 19:00:00 30.8 8 Sudoeste 21 Oeste 0 -- -- 40
2018-09-19 18:00:00 31.8 9 Oeste 18 Sudoeste 0 -- -- 35
2018-09-19 17:00:00 31.6 7 Sudoeste 14 Noroeste 0 -- -- 38
2018-09-19 16:00:00 30.8 7 Sur 20 Sur 0 -- -- 38
2018-09-19 15:00:00 29.8 7 Sudoeste 18 Sur 0 -- -- 45
2018-09-19 14:00:00 28.3 7 Sur 17 Sur 0 -- -- 50
2018-09-19 13:00:00 25.9 6 Este 10 Nordeste 0 -- -- 58
2018-09-19 12:00:00 23.5 3 Nordeste 8 Nordeste 0 -- -- 61
2018-09-19 11:00:00 21.2 3 Norte 7 Noroeste 0 -- -- 68
2018-09-19 10:00:00 18.7 3 Noroeste 6 Oeste 0 -- -- 77
2018-09-19 09:00:00 16.3 0 Calma 7 Sur 0 -- -- 85
2018-09-19 08:00:00 14.9 4 Sudoeste 8 Sur 0 -- -- 91
2018-09-19 07:00:00 15.7 0 Calma 5 Norte 0 -- -- 88
2018-09-19 06:00:00 15.7 3 Nordeste 6 Sudoeste 0 -- -- 86
2018-09-19 05:00:00 16.2 3 Sudoeste 5 Sudoeste 0 -- -- 85
2018-09-19 04:00:00 17 4 Oeste 6 Sudoeste 0 -- -- 82
2018-09-19 03:00:00 17.8 3 Sudoeste 8 Sudoeste 0 -- -- 80
2018-09-19 02:00:00 18.1 5 Sudoeste 11 Sur 0 -- -- 77
2018-09-19 01:00:00 18.9 6 Oeste 10 Sur 0 -- -- 74
2018-09-19 00:00:00 19.9 6 Sudoeste 9 Sudoeste 0 -- -- 71
2018-09-18 23:00:00 21.2 5 Sudeste 14 Nordeste 0 -- -- 67
2018-09-18 22:00:00 22 4 Este 10 Sur 0 -- -- 61
2018-09-18 21:00:00 23 6 Sudoeste 15 Sur 0 -- -- 59
2018-09-18 20:00:00 25.3 12 Sur 13 Sur 0 -- -- 52
2018-09-18 19:00:00 28.4 8 Sudoeste 14 Sudoeste 0 -- -- 44
2018-09-18 18:00:00 28.2 7 Sudoeste 18 Oeste 0 -- -- 46
2018-09-18 17:00:00 29.8 7 Sur 21 Sudoeste 0 -- -- 42
2018-09-18 16:00:00 29.9 8 Sudoeste 22 Sudoeste 0 -- -- 42
2018-09-18 15:00:00 29.3 10 Sudoeste 25 Sudoeste 0 -- -- 45
2018-09-18 14:00:00 28.5 10 Sur 23 Sudoeste 0 -- -- 48
2018-09-18 13:00:00 28 15 Sudoeste 26 Sudoeste 0 -- -- 49
2018-09-18 12:00:00 25.8 12 Sur 23 Sur 0 -- -- 57
2018-09-18 11:00:00 22.9 3 Norte 8 Noroeste 0 -- -- 67
2018-09-18 10:00:00 22 4 Nordeste 8 Nordeste 0 -- -- 70
2018-09-18 09:00:00 19.5 4 Sur 9 Sudeste 0 -- -- 82
2018-09-18 08:00:00 18.6 2 Este 5 Este 0 -- -- 84
2018-09-18 07:00:00 19.3 7 Sudeste 14 Sur 0 -- -- 81
2018-09-18 06:00:00 18.7 0 Calma 5 Sudoeste 0 -- -- 84
2018-09-18 05:00:00 18.7 3 Nordeste 8 Sudoeste 0 -- -- 82
2018-09-18 04:00:00 18.9 4 Sur 10 Sudoeste 0 -- -- 81
2018-09-18 03:00:00 19.5 2 Sudeste 14 Sur 0 -- -- 77
2018-09-18 02:00:00 21.5 8 Sur 17 Sudeste 0 -- -- 68
2018-09-18 01:00:00 21.5 8 Sudeste 12 Este 0 -- -- 71
2018-09-18 00:00:00 22.9 5 Sudeste 10 Sudeste 0 -- -- 66
2018-09-17 23:00:00 24 3 Nordeste 17 Sudeste 0 -- -- 62
2018-09-17 22:00:00 24.5 6 Este 17 Sudeste 0 -- -- 60
2018-09-17 21:00:00 25 3 Sudeste 22 Sudeste 0 -- -- 51
2018-09-17 20:00:00 26.5 16 Sur 28 Sudoeste 0 -- -- 45
2018-09-17 19:00:00 29.4 12 Sur 22 Sudeste 0 -- -- 38
2018-09-17 18:00:00 30.3 11 Sudeste 28 Sur 0 -- -- 34
2018-09-17 17:00:00 31.1 18 Sur 31 Sur 0 -- -- 33
2018-09-17 16:00:00 31.8 10 Sur 30 Sudoeste 0 -- -- 35
2018-09-17 15:00:00 31.2 18 Sur 31 Sur 0 -- -- 36
2018-09-17 14:00:00 30.3 16 Sur 31 Sur 0 -- -- 40
2018-09-17 13:00:00 29.2 17 Sur 28 Sudeste 0 -- -- 43
2018-09-17 12:00:00 25.3 5 Nordeste 15 Sur 0 -- -- 60
2018-09-17 11:00:00 22.1 3 Noroeste 6 Noroeste 0 -- -- 67
2018-09-17 10:00:00 19.9 2 Nordeste 5 Norte 0 -- -- 74
2018-09-17 09:00:00 17.4 2 Este 8 Noroeste 0 -- -- 85
2018-09-17 08:00:00 16.1 3 Noroeste 10 Sur 0 -- -- 86
2018-09-17 07:00:00 16.3 4 Oeste 7 Sudoeste 0 -- -- 86
2018-09-17 06:00:00 16.3 0 Calma 5 Sudeste 0 -- -- 88
2018-09-17 05:00:00 17.1 2 Norte 6 Sudeste 0 -- -- 85
2018-09-17 04:00:00 17.7 3 Sudeste 6 Sudeste 0 -- -- 85
2018-09-17 03:00:00 17.3 6 Sudoeste 11 Sur 0 -- -- 85
2018-09-17 02:00:00 18.4 3 Sudeste 9 Sudoeste 0 -- -- 81
2018-09-17 01:00:00 19.6 0 Calma 8 Sur 0 -- -- 77
2018-09-17 00:00:00 20.3 5 Sudeste 9 Sudeste 0 -- -- 74
2018-09-16 23:00:00 21.7 7 Sur 13 Sur 0 -- -- 67
2018-09-16 22:00:00 22.6 6 Sudeste 8 Sudeste 0 -- -- 60
2018-09-16 21:00:00 24.3 2 Sudeste 17 Sur 0 -- -- 54
2018-09-16 20:00:00 26 12 Sur 15 Sur 0 -- -- 52
2018-09-16 19:00:00 29.3 6 Sur 10 Sur 0 -- -- 47
2018-09-16 18:00:00 30.3 3 Sudeste 12 Oeste 0 -- -- 41
2018-09-16 17:00:00 30.4 4 Sudeste 12 Norte 0 -- -- 40
2018-09-16 16:00:00 30.1 4 Sudeste 19 Sur 0 -- -- 41
2018-09-16 15:00:00 29.5 9 Sur 19 Sur 0 -- -- 42
2018-09-16 14:00:00 27.7 4 Sudeste 12 Norte 0 -- -- 49
2018-09-16 13:00:00 25.8 5 Norte 10 Norte 0 -- -- 51
2018-09-16 12:00:00 23.2 4 Nordeste 8 Nordeste 0 -- -- 61
2018-09-16 11:00:00 20.2 3 Norte 6 Norte 0 -- -- 72
2018-09-16 10:00:00 17.9 3 Norte 5 Nordeste 0 -- -- 80
2018-09-16 09:00:00 15.4 0 Calma 6 Sudoeste 0 -- -- 87
2018-09-16 08:00:00 13.3 0 Calma 6 Sudoeste 0 -- -- 93
2018-09-16 07:00:00 13.6 3 Sudoeste 7 Sudoeste 0 -- -- 92
2018-09-16 06:00:00 14.3 4 Sudoeste 5 Sudoeste 0 -- -- 91
2018-09-16 05:00:00 14.5 0 Calma 4 Sur 0 -- -- 89
2018-09-16 04:00:00 15 2 Sudeste 9 Sur 0 -- -- 88
2018-09-16 03:00:00 15.7 2 Sudoeste 4 Sudeste 0 -- -- 86
2018-09-16 02:00:00 16 2 Este 5 Sudoeste 0 -- -- 83
2018-09-16 01:00:00 16.6 0 Calma 5 Sudeste 0 -- -- 81
2018-09-16 00:00:00 17.5 0 Calma -- -- 0 -- -- 78
2018-09-15 23:00:00 18.3 0 Calma 6 Sur 0 -- -- 73
2018-09-15 22:00:00 18.9 0 Calma 12 Sudoeste 0 -- -- 76
2018-09-15 21:00:00 20.1 2 Sudoeste 10 Sur 0 -- -- 72
2018-09-15 20:00:00 21.7 5 Sur 12 Sur 0 -- -- 66
2018-09-15 19:00:00 23.2 6 Sudoeste 8 Sur 0 -- -- 65
2018-09-15 18:00:00 24.8 4 Noroeste 13 Sudoeste 0 -- -- 56
2018-09-15 17:00:00 25 5 Sudoeste 13 Oeste 0 -- -- 57
2018-09-15 16:00:00 25.2 7 Sur 20 Sur 0 -- -- 58
2018-09-15 15:00:00 25.9 6 Este 15 Sudoeste 0 -- -- 55
2018-09-15 14:00:00 24.6 4 Norte 12 Nordeste 0 -- -- 58
2018-09-15 13:00:00 21.9 5 Nordeste 9 Nordeste 0 -- -- 60
2018-09-15 12:00:00 19.7 4 Nordeste 8 Nordeste 0 -- -- 65
2018-09-15 11:00:00 18.2 4 Nordeste 9 Nordeste 0 -- -- 72
2018-09-15 10:00:00 15.5 4 Nordeste 7 Nordeste 0 -- -- 82
2018-09-15 09:00:00 13.5 2 Nordeste 5 Nordeste 0 -- -- 87
2018-09-15 08:00:00 13.1 2 Noroeste 12 Sudeste 0 -- -- 86
2018-09-15 07:00:00 14.1 8 Sudeste 16 Sudeste 0 -- -- 85
2018-09-15 06:00:00 14.4 9 Sudeste 14 Sudeste 0 -- -- 82
2018-09-15 05:00:00 14.3 7 Sudeste 10 Sudeste 0 -- -- 83
2018-09-15 04:00:00 14.8 6 Sudeste 9 Sudeste 0 -- -- 80
2018-09-15 03:00:00 15.6 4 Sudeste 9 Nordeste 0 -- -- 77
2018-09-15 02:00:00 16.5 5 Este 12 Sudeste 0 -- -- 75
2018-09-15 01:00:00 16.6 5 Sudeste 12 Nordeste 0 -- -- 75
2018-09-15 00:00:00 18.2 4 Nordeste 17 Noroeste 0 -- -- 69
2018-09-14 23:00:00 18.8 4 Norte 11 Nordeste 0 -- -- 65
2018-09-14 22:00:00 19.9 9 Nordeste 18 Norte 0 -- -- 62
2018-09-14 21:00:00 20.9 9 Noroeste 18 Nordeste 0 -- -- 60
2018-09-14 20:00:00 22.7 7 Norte 24 Noroeste 0 -- -- 57
2018-09-14 19:00:00 25 15 Noroeste 27 Noroeste 0 -- -- 51
2018-09-14 18:00:00 27.4 13 Norte 25 Norte 0 -- -- 47
2018-09-14 17:00:00 28.7 12 Norte 27 Norte 0 -- -- 44
2018-09-14 16:00:00 28.8 5 Norte 14 Nordeste 0 -- -- 43
2018-09-14 15:00:00 27.5 4 Este 11 Nordeste 0 -- -- 46
2018-09-14 14:00:00 25.6 4 Nordeste 14 Nordeste 0 -- -- 53
2018-09-14 13:00:00 23.7 4 Nordeste 14 Nordeste 0 -- -- 58
2018-09-14 12:00:00 22 6 Este 13 Nordeste 0 -- -- 62
2018-09-14 11:00:00 19.9 5 Nordeste 12 Nordeste 0 -- -- 69
2018-09-14 10:00:00 17.7 5 Nordeste 9 Nordeste 0 -- -- 76
2018-09-14 09:00:00 14.8 0 Calma 5 Oeste 0 -- -- 86
2018-09-14 08:00:00 12.9 5 Noroeste 13 Este 0 -- -- 89
2018-09-14 07:00:00 14.6 8 Este 16 Sudeste 0 -- -- 87
2018-09-14 06:00:00 14.3 3 Nordeste 12 Este 0 -- -- 86
2018-09-14 05:00:00 14.9 5 Este 18 Sudeste 0 -- -- 85
2018-09-14 04:00:00 15.2 10 Sudeste 17 Este 0 -- -- 83
2018-09-14 03:00:00 15.2 8 Sudeste 11 Este 0 -- -- 82
2018-09-14 02:00:00 16 4 Este 12 Nordeste 0 -- -- 78
2018-09-14 01:00:00 16.4 3 Este 12 Nordeste 0 -- -- 76
2018-09-14 00:00:00 16.8 5 Este 10 Este 0 -- -- 74
2018-09-13 23:00:00 17.6 5 Nordeste 19 Nordeste 0 -- -- 70
2018-09-13 22:00:00 18.4 6 Este 21 Norte 0 -- -- 67
2018-09-13 21:00:00 19.2 7 Norte 16 Nordeste 0 -- -- 65
2018-09-13 20:00:00 21.4 6 Norte 22 Norte 0 -- -- 59
2018-09-13 19:00:00 23.7 11 Norte 26 Norte 0 -- -- 53
2018-09-13 18:00:00 24.7 13 Norte 26 Norte 0 -- -- 50
2018-09-13 17:00:00 25.2 15 Norte 26 Norte 0 -- -- 51
2018-09-13 16:00:00 25.7 10 Norte 26 Noroeste 0 -- -- 51
2018-09-13 15:00:00 25.2 12 Norte 24 Norte 0 -- -- 51
2018-09-13 14:00:00 25.6 12 Norte 23 Noroeste 0 -- -- 51
2018-09-13 13:00:00 25.2 10 Norte 23 Nordeste 0 -- -- 53
2018-09-13 12:00:00 24.3 13 Nordeste 26 Nordeste 0 -- -- 56
2018-09-13 11:00:00 22.6 15 Norte 26 Norte 0 -- -- 61
2018-09-13 10:00:00 21.1 3 Nordeste 9 Este 0 -- -- 67
2018-09-13 09:00:00 18.7 3 Nordeste 8 Nordeste 0 -- -- 77
2018-09-13 08:00:00 16.8 3 Este 11 Norte 0 -- -- 82
2018-09-13 07:00:00 16.7 4 Sudoeste 7 Noroeste 0 -- -- 82
2018-09-13 06:00:00 17.2 2 Oeste 9 Sudoeste 0 -- -- 81
2018-09-13 05:00:00 17.4 4 Nordeste 12 Norte 0 -- -- 82
2018-09-13 04:00:00 17.9 9 Nordeste 12 Nordeste 0 -- -- 81
2018-09-13 03:00:00 18.5 3 Norte 13 Norte 0 -- -- 78
2018-09-13 02:00:00 19.2 8 Noroeste 18 Noroeste 0 -- -- 78
2018-09-13 01:00:00 19.6 7 Norte 15 Noroeste 0 -- -- 78
2018-09-13 00:00:00 18.9 2 Este 8 Este 0 -- -- 81
2018-09-12 23:00:00 18.9 6 Este 11 Este 0 -- -- 78
2018-09-12 22:00:00 19.7 3 Norte 10 Noroeste 0 -- -- 71
2018-09-12 21:00:00 20.4 6 Este 13 Este 0 -- -- 68
2018-09-12 20:00:00 22.5 3 Este 17 Nordeste 0 -- -- 59
2018-09-12 19:00:00 25.1 9 Nordeste 29 Nordeste 0 -- -- 54
2018-09-12 18:00:00 26.9 13 Nordeste 23 Nordeste 0 -- -- 49
2018-09-12 17:00:00 27.2 4 Norte 19 Sudoeste 0 -- -- 50
2018-09-12 16:00:00 27.4 13 Sur 23 Sudoeste 0 -- -- 53
2018-09-12 15:00:00 25.7 13 Sur 21 Sur 0 -- -- 57
2018-09-12 14:00:00 23.5 9 Sudoeste 20 Sudoeste 0 -- -- 62
2018-09-12 13:00:00 22.8 9 Sudoeste 17 Sudoeste 0 -- -- 68
2018-09-12 12:00:00 21.6 4 Sudoeste 14 Sur 0 -- -- 71
2018-09-12 11:00:00 19.4 5 Noroeste 9 Noroeste 0 -- -- 80
2018-09-12 10:00:00 17.8 0 Calma 6 Sur 0 -- -- 88
2018-09-12 09:00:00 16.7 4 Sudoeste 13 Noroeste 0 -- -- 92
2018-09-12 08:00:00 16.7 2 Nordeste 8 Sur 0 -- -- 90
2018-09-12 07:00:00 16.6 9 Sur 13 Sur 0 -- -- 91
2018-09-12 06:00:00 16.2 4 Noroeste 8 Noroeste 0 -- -- 90
2018-09-12 05:00:00 16.6 3 Sudoeste 6 Este 0 -- -- 90
2018-09-12 04:00:00 16.6 3 Oeste 9 Sur 0 -- -- 86
2018-09-12 03:00:00 17.1 2 Este 6 Sur 0 -- -- 87
2018-09-12 02:00:00 17.1 6 Sur 8 Sudeste 0 -- -- 86
2018-09-12 01:00:00 17.6 4 Sur 9 Sur 0 -- -- 85
2018-09-12 00:00:00 18.6 4 Sudeste 10 Sur 0 -- -- 81
2018-09-11 23:00:00 19.1 8 Sudeste 9 Sudeste 0 -- -- 77
2018-09-11 22:00:00 19.6 4 Sur 12 Sudeste 0 -- -- 72
2018-09-11 21:00:00 21.3 8 Este 13 Este 0 -- -- 64
2018-09-11 20:00:00 22.9 6 Sur 25 Norte 0 -- -- 60
2018-09-11 19:00:00 26 2 Sudeste 18 Sudoeste 0 -- -- 55
2018-09-11 18:00:00 27.6 9 Sudoeste 21 Sudoeste 0 -- -- 48
2018-09-11 17:00:00 27.6 10 Sur 24 Sur 0 -- -- 47
2018-09-11 16:00:00 27.5 12 Sudoeste 27 Sur 0 -- -- 54
2018-09-11 15:00:00 28 15 Sur 30 Sur 0 -- -- 52
2018-09-11 14:00:00 26.4 11 Sudoeste 22 Sudoeste 0 -- -- 60
2018-09-11 13:00:00 24.5 4 Nordeste 8 Nordeste 0 -- -- 63
2018-09-11 12:00:00 22.5 3 Nordeste 9 Nordeste 0 -- -- 68
2018-09-11 11:00:00 20.4 4 Nordeste 7 Nordeste 0 -- -- 76
2018-09-11 10:00:00 18.3 3 Nordeste 6 Nordeste 0 -- -- 82
2018-09-11 09:00:00 15.9 0 Calma 3 Nordeste 0 -- -- 90
2018-09-11 08:00:00 14.2 0 Calma 3 Este 0 -- -- 94
2018-09-11 07:00:00 14.2 0 Calma 6 Sur 0 -- -- 93
2018-09-11 06:00:00 14.4 2 Sur 5 Noroeste 0 -- -- 93
2018-09-11 05:00:00 15.2 0 Calma 3 Nordeste 0 -- -- 90
2018-09-11 04:00:00 15.5 2 Norte 3 Norte 0 -- -- 88
2018-09-11 03:00:00 15.9 0 Calma 3 Este 0 -- -- 87
2018-09-11 02:00:00 16.5 0 Calma 4 Sudeste 0 -- -- 85
2018-09-11 01:00:00 17.4 4 Sudeste 9 Sudeste 0 -- -- 82
2018-09-11 00:00:00 18 8 Sudeste 10 Sudeste 0 -- -- 81
2018-09-10 23:00:00 19 3 Sudeste 13 Este 0 -- -- 77
2018-09-10 22:00:00 20 6 Este 13 Sudeste 0 -- -- 74
2018-09-10 21:00:00 21.6 6 Este 13 Este 0 -- -- 68
2018-09-10 20:00:00 24.4 4 Este 19 Nordeste 0 -- -- 61
2018-09-10 19:00:00 26.5 7 Norte 18 Norte 0 -- -- 55
2018-09-10 18:00:00 27.3 4 Este 12 Oeste 0 -- -- 51
2018-09-10 17:00:00 28.2 6 Oeste 15 Noroeste 0 -- -- 48
2018-09-10 16:00:00 26.1 3 Nordeste 11 Norte 0 -- -- 54
2018-09-10 15:00:00 26.6 7 Sudoeste 16 Sur 0 -- -- 52
2018-09-10 14:00:00 26.3 5 Noroeste 11 Noroeste 0 -- -- 52
2018-09-10 13:00:00 25 5 Nordeste 19 Nordeste 0 -- -- 56
2018-09-10 12:00:00 23.7 5 Este 11 Este 0 -- -- 63
2018-09-10 11:00:00 21.8 5 Este 14 Este 0 -- -- 69
2018-09-10 10:00:00 20.3 7 Nordeste 16 Este 0 -- -- 76
2018-09-10 09:00:00 18.5 7 Este 11 Este 0 -- -- 82
2018-09-10 08:00:00 16.2 6 Sudeste 12 Sudeste 0 -- -- 88
2018-09-10 07:00:00 16.5 7 Sudeste 13 Sudeste 0 -- -- 88
2018-09-10 06:00:00 16.7 10 Sudeste 13 Este 0 -- -- 88
2018-09-10 05:00:00 17 8 Sudeste 12 Sudeste 0 -- -- 87
2018-09-10 04:00:00 17.3 9 Sudeste 13 Sudeste 0 -- -- 86
2018-09-10 03:00:00 17.5 8 Sudeste 10 Sudeste 0 -- -- 85
2018-09-10 02:00:00 18.4 4 Este 13 Sudeste 0 -- -- 81
2018-09-10 01:00:00 18.7 3 Oeste 8 Norte 0 -- -- 80
2018-09-10 00:00:00 19 4 Este 9 Este 0 -- -- 79
2018-09-09 23:00:00 20.3 0 Calma 7 Noroeste 0 -- -- 73
2018-09-09 22:00:00 21.2 4 Norte 15 Norte 0 -- -- 70
2018-09-09 21:00:00 22.2 6 Nordeste 18 Norte 0 -- -- 68
2018-09-09 20:00:00 24.1 9 Norte 26 Norte 0 -- -- 60
2018-09-09 19:00:00 25.4 6 Norte 19 Noroeste 0 -- -- 59
2018-09-09 18:00:00 25.3 6 Noroeste 12 Noroeste 0 -- -- 60
2018-09-09 17:00:00 24.4 12 Oeste 25 Noroeste 0 -- -- 60
2018-09-09 16:00:00 27.2 6 Nordeste 11 Este 0 -- -- 43
2018-09-09 15:00:00 26.2 5 Oeste 12 Nordeste 0 -- -- 58
2018-09-09 14:00:00 23.6 3 Este 7 Nordeste 0 -- -- 65
2018-09-09 13:00:00 22 4 Nordeste 8 Norte 0 -- -- 72
2018-09-09 12:00:00 21 4 Noroeste 7 Noroeste 0 -- -- 75
2018-09-09 11:00:00 20.3 4 Nordeste 11 Nordeste 0 -- -- 79
2018-09-09 10:00:00 18.5 4 Este 9 Sudeste 0 -- -- 85
2018-09-09 09:00:00 16.4 9 Sudeste 14 Sudeste 0 -- -- 91
2018-09-09 08:00:00 15.7 9 Sudeste 13 Sudeste 0 -- -- 93
2018-09-09 07:00:00 16 4 Sur 10 Sudoeste 0 -- -- 92
2018-09-09 06:00:00 16.5 4 Sudoeste 9 Oeste 0.2 -- -- 94
2018-09-09 05:00:00 16.6 6 Oeste 13 Oeste 1.4 -- -- 95
2018-09-09 04:00:00 16.7 7 Este 20 Sudoeste 4.2 -- -- 94
2018-09-09 03:00:00 16.6 7 Oeste 15 Este 8.6 -- -- 93
2018-09-09 02:00:00 16.9 3 Norte 15 Este 0 -- -- 91
2018-09-09 01:00:00 16.8 11 Este 26 Este 2.6 -- -- 93
2018-09-09 00:00:00 17.1 7 Sudeste 18 Noroeste 2.2 -- -- 92
2018-09-08 23:00:00 18 5 Norte 39 Oeste 1.8 -- -- 84
2018-09-08 22:00:00 20.6 24 Oeste 40 Oeste 0 -- -- 66
2018-09-08 21:00:00 22 27 Oeste 50 Oeste 0 -- -- 63
2018-09-08 20:00:00 25.6 6 Sudeste 15 Sur 0 -- -- 50
2018-09-08 19:00:00 27 9 Sudeste 18 Sudeste 0 -- -- 45
2018-09-08 18:00:00 28.4 13 Sudeste 35 Sur 0 -- -- 42
2018-09-08 17:00:00 29.2 16 Sudeste 36 Sur 0 -- -- 42
2018-09-08 16:00:00 28.5 19 Sur 37 Sudeste 0 -- -- 44
2018-09-08 15:00:00 29.3 16 Sur 37 Sur 0 -- -- 40
2018-09-08 14:00:00 29.3 22 Sur 36 Sur 0 -- -- 41
2018-09-08 13:00:00 27 15 Sudeste 32 Sudeste 0 -- -- 47
2018-09-08 12:00:00 23.9 6 Nordeste 11 Este 0 -- -- 58
2018-09-08 11:00:00 21.2 7 Nordeste 10 Nordeste 0 -- -- 67
2018-09-08 10:00:00 18.5 3 Nordeste 5 Este 0 -- -- 74
2018-09-08 09:00:00 16.2 2 Norte 6 Oeste 0 -- -- 84
2018-09-08 08:00:00 14.6 3 Oeste 6 Sudoeste 0 -- -- 88
2018-09-08 07:00:00 14.9 2 Este 8 Sudoeste 0 -- -- 87
2018-09-08 06:00:00 14.8 2 Este 9 Noroeste 0 -- -- 88
2018-09-08 05:00:00 15.1 2 Nordeste 8 Sur 0 -- -- 86
2018-09-08 04:00:00 14.9 2 Oeste 5 Oeste 0 -- -- 85
2018-09-08 03:00:00 15.9 4 Sudeste 6 Sudeste 0 -- -- 82
2018-09-08 02:00:00 16.6 4 Este 12 Sudeste 0 -- -- 79
2018-09-08 01:00:00 17.2 4 Sudeste 11 Sudeste 0 -- -- 76
2018-09-08 00:00:00 17.5 5 Sudeste 12 Sudeste 0 -- -- 74
2018-09-07 23:00:00 18.3 4 Sudeste 8 Sudoeste 0 -- -- 70
2018-09-07 22:00:00 19.9 3 Sur 10 Nordeste 0 -- -- 65
2018-09-07 21:00:00 21.3 5 Noroeste 13 Noroeste 0 -- -- 61
2018-09-07 20:00:00 23.2 6 Norte 25 Norte 0 -- -- 56
2018-09-07 19:00:00 25 11 Norte 22 Norte 0 -- -- 50
2018-09-07 18:00:00 26.5 11 Norte 22 Norte 0 -- -- 46
2018-09-07 17:00:00 27.3 8 Norte 21 Norte 0 -- -- 44
2018-09-07 16:00:00 26 10 Norte 21 Nordeste 0 -- -- 46
2018-09-07 15:00:00 26.3 8 Norte 18 Noroeste 0 -- -- 45
2018-09-07 14:00:00 25.2 5 Nordeste 15 Noroeste 0 -- -- 48
2018-09-07 13:00:00 23.9 4 Nordeste 10 Noroeste 0 -- -- 54
2018-09-07 12:00:00 22.3 4 Este 13 Nordeste 0 -- -- 58
2018-09-07 11:00:00 21 5 Este 12 Este 0 -- -- 63
2018-09-07 10:00:00 18.6 8 Este 12 Este 0 -- -- 68
2018-09-07 09:00:00 17 5 Este 11 Este 0 -- -- 75
2018-09-07 08:00:00 14.5 2 Este 7 Sur 0 -- -- 81
2018-09-07 07:00:00 15.3 3 Norte 9 Norte 0 -- -- 78
2018-09-07 06:00:00 15.6 4 Oeste 12 Noroeste 0 -- -- 77
2018-09-07 05:00:00 15.6 6 Noroeste 18 Norte 0 -- -- 78
2018-09-07 04:00:00 16.2 12 Noroeste 19 Noroeste 0 -- -- 77
2018-09-07 03:00:00 16.5 9 Oeste 17 Oeste 0 -- -- 76
2018-09-07 02:00:00 17.2 8 Noroeste 24 Norte 0 -- -- 73
2018-09-07 01:00:00 16.6 7 Noroeste 16 Norte 0 -- -- 75
2018-09-07 00:00:00 17.2 7 Noroeste 18 Norte 0 -- -- 72
2018-09-06 23:00:00 17.2 5 Oeste 16 Oeste 0 -- -- 71
2018-09-06 22:00:00 17.7 9 Oeste 18 Norte 0 -- -- 71
2018-09-06 21:00:00 18.8 10 Noroeste 30 Norte 0 -- -- 67
2018-09-06 20:00:00 20.5 13 Norte 32 Norte 0 -- -- 61
2018-09-06 19:00:00 21.3 19 Norte 37 Norte 0 -- -- 59
2018-09-06 18:00:00 23.6 14 Norte 36 Noroeste 0 -- -- 52
2018-09-06 17:00:00 24.6 18 Norte 36 Noroeste 0 -- -- 51
2018-09-06 16:00:00 24.6 14 Norte 29 Norte 0 -- -- 49
2018-09-06 15:00:00 25.1 13 Noroeste 32 Noroeste 0 -- -- 49
2018-09-06 14:00:00 24.4 15 Norte 29 Nordeste 0 -- -- 53
2018-09-06 13:00:00 24 14 Nordeste 28 Noroeste 0 -- -- 53
2018-09-06 12:00:00 22.1 7 Norte 16 Norte 0 -- -- 64
2018-09-06 11:00:00 19.4 5 Este 13 Este 0 -- -- 77
2018-09-06 10:00:00 17.6 8 Este 15 Este 0 -- -- 81
2018-09-06 09:00:00 16.3 4 Sudeste 8 Sudeste 0 -- -- 87
2018-09-06 08:00:00 15.7 5 Este 13 Sudeste 0 -- -- 88
2018-09-06 07:00:00 15.8 8 Este 15 Este 0 -- -- 88
2018-09-06 06:00:00 15.9 8 Este 17 Este 0 -- -- 89
2018-09-06 05:00:00 15.9 4 Nordeste 15 Nordeste 0 -- -- 87
2018-09-06 04:00:00 16.1 7 Este 10 Este 0 -- -- 89
2018-09-06 03:00:00 16.6 6 Este 11 Sudeste 0 -- -- 89
2018-09-06 02:00:00 16.8 9 Sudeste 14 Este 0 -- -- 90
2018-09-06 01:00:00 17.1 6 Sudeste 11 Este 0.2 -- -- 89
2018-09-06 00:00:00 17.2 5 Sudeste 10 Este 0 -- -- 87
2018-09-05 23:00:00 17.5 3 Sudeste 12 Este 0 -- -- 85
2018-09-05 22:00:00 18 8 Sudeste 22 Nordeste 0.2 -- -- 84
2018-09-05 21:00:00 19.3 7 Nordeste 22 Nordeste 0 -- -- 80
2018-09-05 20:00:00 19.4 11 Este 31 Este 0 -- -- 83
2018-09-05 19:00:00 20.1 11 Noroeste 32 Oeste 0.8 -- -- 81
2018-09-05 18:00:00 24.1 12 Noroeste 23 Noroeste 0 -- -- 63
2018-09-05 17:00:00 26.7 6 Noroeste 10 Noroeste 0 -- -- 54
2018-09-05 16:00:00 26.4 5 Noroeste 10 Norte 0 -- -- 55
2018-09-05 15:00:00 25.2 7 Noroeste 10 Noroeste 0 -- -- 58
2018-09-05 14:00:00 25.3 5 Oeste 12 Norte 0 -- -- 58
2018-09-05 13:00:00 23.3 4 Nordeste 9 Este 0 -- -- 62
2018-09-05 12:00:00 20.7 4 Norte 8 Nordeste 0 -- -- 74
2018-09-05 11:00:00 19.2 2 Norte 5 Norte 0 -- -- 76
2018-09-05 10:00:00 18.2 2 Noroeste 8 Este 0 -- -- 81
2018-09-05 09:00:00 18.1 4 Sudeste 7 Este 0 -- -- 84
2018-09-05 08:00:00 16.6 3 Sudeste 6 Sur 0 -- -- 87
2018-09-05 07:00:00 16.5 5 Sur 9 Sur 0 -- -- 90
2018-09-05 06:00:00 16.4 3 Sudoeste 10 Sudoeste 0 -- -- 88
2018-09-05 05:00:00 16.7 6 Sudoeste 10 Sudoeste 0 -- -- 87
2018-09-05 04:00:00 17.4 4 Oeste 8 Oeste 0.2 -- -- 88
2018-09-05 03:00:00 17.5 3 Noroeste 9 Este 0 -- -- 88
2018-09-05 02:00:00 17.8 5 Nordeste 21 Sudeste 0 -- -- 89
2018-09-05 01:00:00 18.1 12 Este 24 Este 0 -- -- 86
2018-09-05 00:00:00 19.3 8 Nordeste 18 Sudeste 1.2 -- -- 83
2018-09-04 23:00:00 21.5 6 Sudeste 20 Nordeste 0 -- -- 64
2018-09-04 22:00:00 22.9 5 Nordeste 18 Este 0 -- -- 62
2018-09-04 21:00:00 24.2 9 Este 17 Este 0 -- -- 58
2018-09-04 20:00:00 26.8 6 Nordeste 18 Nordeste 0 -- -- 51
2018-09-04 19:00:00 28.6 10 Norte 19 Norte 0 -- -- 47
2018-09-04 18:00:00 31.1 5 Noroeste 16 Sudoeste 0 -- -- 35
2018-09-04 17:00:00 31.4 6 Sudoeste 18 Sudoeste 0 -- -- 35
2018-09-04 16:00:00 30.6 8 Sudoeste 31 Sur 0 -- -- 38
2018-09-04 15:00:00 30.6 10 Sudoeste 23 Sur 0 -- -- 39
2018-09-04 14:00:00 28 7 Nordeste 14 Nordeste 0 -- -- 47
2018-09-04 13:00:00 26.7 5 Nordeste 12 Nordeste 0 -- -- 50
2018-09-04 12:00:00 24.7 4 Nordeste 10 Nordeste 0 -- -- 51
2018-09-04 11:00:00 22.8 5 Este 17 Este 0 -- -- 52
2018-09-04 10:00:00 20.8 7 Este 15 Este 0 -- -- 55
2018-09-04 09:00:00 19.1 5 Este 18 Este 0 -- -- 59
2018-09-04 08:00:00 16.6 7 Sudeste 12 Este 0 -- -- 67
2018-09-04 07:00:00 17 8 Sudeste 13 Sudeste 0 -- -- 66
2018-09-04 06:00:00 17.7 8 Sudeste 14 Sudeste 0 -- -- 63
2018-09-04 05:00:00 18.6 7 Sudeste 13 Sudeste 0 -- -- 59
2018-09-04 04:00:00 18.7 9 Este 18 Este 0 -- -- 58
2018-09-04 03:00:00 18.6 9 Este 18 Este 0 -- -- 58
2018-09-04 02:00:00 19.1 9 Este 16 Este 0 -- -- 60
2018-09-04 01:00:00 19.9 6 Este 9 Este 0 -- -- 61
2018-09-04 00:00:00 20.4 3 Este 10 Este 0 -- -- 60
2018-09-03 23:00:00 21 4 Este 10 Nordeste 0 -- -- 58
2018-09-03 22:00:00 22.3 7 Nordeste 14 Nordeste 0 -- -- 51
2018-09-03 21:00:00 23.7 8 Nordeste 19 Este 0 -- -- 47
2018-09-03 20:00:00 26.2 5 Norte 22 Noroeste 0 -- -- 45
2018-09-03 19:00:00 28.7 9 Norte 21 Norte 0 -- -- 40
2018-09-03 18:00:00 30.3 4 Sudeste 10 Oeste 0 -- -- 38
2018-09-03 17:00:00 30.3 7 Noroeste 21 Norte 0 -- -- 40
2018-09-03 16:00:00 29.5 10 Noroeste 18 Noroeste 0 -- -- 44
2018-09-03 15:00:00 28 12 Noroeste 20 Noroeste 0 -- -- 44
2018-09-03 14:00:00 27.7 5 Nordeste 10 Nordeste 0 -- -- 41
2018-09-03 13:00:00 26.7 5 Nordeste 10 Norte 0 -- -- 43
2018-09-03 12:00:00 24.6 6 Nordeste 13 Nordeste 0 -- -- 41
2018-09-03 11:00:00 22 5 Nordeste 10 Este 0 -- -- 48
2018-09-03 10:00:00 19 4 Este 8 Este 0 -- -- 53
2018-09-03 09:00:00 15.5 3 Nordeste 9 Sudoeste 0 -- -- 69
2018-09-03 08:00:00 13.1 2 Este 5 Nordeste 0 -- -- 73
2018-09-03 07:00:00 14 4 Sudeste 7 Sudeste 0 -- -- 67
2018-09-03 06:00:00 15 6 Sudeste 10 Sudeste 0 -- -- 63
2018-09-03 05:00:00 15.3 2 Sudeste 8 Sudeste 0 -- -- 66
2018-09-03 04:00:00 16.5 3 Sudeste 9 Este 0 -- -- 62
2018-09-03 03:00:00 18.1 6 Sudeste 14 Sudeste 0 -- -- 57
2018-09-03 02:00:00 19.1 3 Este 15 Este 0 -- -- 55
2018-09-03 01:00:00 19.9 6 Sudeste 11 Sudeste 0 -- -- 51
2018-09-03 00:00:00 21.1 5 Sur 8 Sur 0 -- -- 46
2018-09-02 23:00:00 22.6 3 Norte 11 Noroeste 0 -- -- 42
2018-09-02 22:00:00 24.3 4 Noroeste 12 Norte 0 -- -- 38
2018-09-02 21:00:00 26.5 6 Norte 24 Nordeste 0 -- -- 33
2018-09-02 20:00:00 28.9 17 Nordeste 27 Nordeste 0 -- -- 32
2018-09-02 19:00:00 31.5 13 Nordeste 26 Nordeste 0 -- -- 26
2018-09-02 18:00:00 32.1 14 Nordeste 24 Nordeste 0 -- -- 26
2018-09-02 17:00:00 32.1 9 Nordeste 17 Nordeste 0 -- -- 34
2018-09-02 16:00:00 32.1 6 Nordeste 14 Nordeste 0 -- -- 34
2018-09-02 15:00:00 30.3 5 Norte 13 Nordeste 0 -- -- 37
2018-09-02 14:00:00 28 4 Este 10 Nordeste 0 -- -- 43
2018-09-02 13:00:00 25.6 4 Norte 10 Nordeste 0 -- -- 51
2018-09-02 12:00:00 22.7 3 Nordeste 9 Nordeste 0 -- -- 52
2018-09-02 11:00:00 19.9 4 Norte 9 Nordeste 0 -- -- 60
2018-09-02 10:00:00 17.7 4 Este 12 Este 0 -- -- 65
2018-09-02 09:00:00 15.2 4 Este 10 Este 0 -- -- 76
2018-09-02 08:00:00 12.6 2 Este 5 Sudeste 0 -- -- 87
2018-09-02 07:00:00 12.4 2 Este 4 Sudeste 0 -- -- 84
2018-09-02 06:00:00 13.2 3 Sur -- -- 0 -- -- 82
2018-09-02 05:00:00 14.3 0 Calma 7 Nordeste 0 -- -- 77
2018-09-02 04:00:00 16 3 Nordeste 10 Este 0 -- -- 71
2018-09-02 03:00:00 17.2 8 Sudeste 14 Nordeste 0 -- -- 68
2018-09-02 02:00:00 18.3 5 Sudeste 13 Este 0 -- -- 64
2018-09-02 01:00:00 19 5 Este 11 Nordeste 0 -- -- 63
2018-09-02 00:00:00 19.9 3 Este 14 Norte 0 -- -- 59
2018-09-01 23:00:00 21.3 7 Nordeste 18 Norte 0 -- -- 54
2018-09-01 22:00:00 22.1 6 Norte 13 Norte 0 -- -- 51
2018-09-01 21:00:00 23.9 4 Norte 19 Norte 0 -- -- 47
2018-09-01 20:00:00 26.7 10 Norte 23 Norte 0 -- -- 40
2018-09-01 19:00:00 28.6 10 Norte 29 Norte 0 -- -- 32
2018-09-01 18:00:00 29.8 12 Norte 31 Nordeste 0 -- -- 29
2018-09-01 17:00:00 30.4 13 Norte 30 Norte 0 -- -- 30
2018-09-01 16:00:00 30.7 15 Noroeste 28 Noroeste 0 -- -- 31
2018-09-01 15:00:00 30.1 9 Norte 24 Noroeste 0 -- -- 34
2018-09-01 14:00:00 29.5 10 Noroeste 24 Noroeste 0 -- -- 37
2018-09-01 13:00:00 27.4 10 Noroeste 19 Noroeste 0 -- -- 43
2018-09-01 12:00:00 24.3 5 Nordeste 12 Nordeste 0 -- -- 53
2018-09-01 11:00:00 22.3 8 Este 15 Este 0 -- -- 60
2018-09-01 10:00:00 20 10 Nordeste 15 Este 0 -- -- 68
2018-09-01 09:00:00 17.4 6 Este 10 Sudeste 0 -- -- 77
2018-09-01 08:00:00 13.8 2 Este 5 Este 0 -- -- 88
2018-09-01 07:00:00 14.9 2 Norte 9 Sudeste 0 -- -- 83
2018-09-01 06:00:00 15.6 6 Sudeste 9 Este 0 -- -- 82
2018-09-01 05:00:00 16.6 5 Sudeste 11 Noroeste 0 -- -- 79
2018-09-01 04:00:00 16.7 9 Sudeste 19 Norte 0 -- -- 79
2018-09-01 03:00:00 17.5 11 Noroeste 25 Noroeste 0 -- -- 75
2018-09-01 02:00:00 17.9 14 Noroeste 28 Oeste 0 -- -- 74
2018-09-01 01:00:00 18.6 12 Oeste 24 Oeste 0 -- -- 71
2018-09-01 00:00:00 19.1 7 Noroeste 27 Norte 0 -- -- 69
2018-08-31 23:00:00 19.7 11 Norte 19 Noroeste 0 -- -- 67
2018-08-31 22:00:00 20.2 8 Norte 28 Norte 0 -- -- 66
2018-08-31 21:00:00 21 10 Norte 36 Norte 0 -- -- 61
2018-08-31 20:00:00 22.7 16 Norte 35 Norte 0 -- -- 56
2018-08-31 19:00:00 24.6 15 Norte 33 Norte 0 -- -- 50
2018-08-31 18:00:00 26.2 17 Norte 32 Noroeste 0 -- -- 47
2018-08-31 17:00:00 27.2 15 Norte 30 Norte 0 -- -- 44
2018-08-31 16:00:00 27.4 14 Norte 32 Nordeste 0 -- -- 42
2018-08-31 15:00:00 27.2 14 Norte 32 Norte 0 -- -- 40
2018-08-31 14:00:00 26.7 14 Noroeste 27 Noroeste 0 -- -- 41
2018-08-31 13:00:00 26 16 Noroeste 28 Noroeste 0 -- -- 43
2018-08-31 12:00:00 24.6 5 Noroeste 17 Norte 0 -- -- 47
2018-08-31 11:00:00 22.6 8 Nordeste 16 Nordeste 0 -- -- 55
2018-08-31 10:00:00 19.7 4 Nordeste 12 Sudeste 0 -- -- 64
2018-08-31 09:00:00 17.2 7 Este 12 Este 0 -- -- 75
2018-08-31 08:00:00 14.5 4 Sudeste 13 Este 0 -- -- 84
2018-08-31 07:00:00 14.6 6 Sudeste 14 Sudeste 0 -- -- 83
2018-08-31 06:00:00 14.6 6 Sudeste 15 Sudeste 0 -- -- 84
2018-08-31 05:00:00 14.8 4 Sudeste 9 Sur 0 -- -- 83
2018-08-31 04:00:00 15.2 6 Sudeste 8 Sudeste 0 -- -- 81
2018-08-31 03:00:00 15.9 5 Sudeste 10 Sudeste 0 -- -- 78
2018-08-31 02:00:00 16.7 3 Sudeste 13 Norte 0 -- -- 74
2018-08-31 01:00:00 17.5 5 Noroeste 9 Noroeste 0 -- -- 71
2018-08-31 00:00:00 17.8 4 Sur 21 Norte 0 -- -- 69
2018-08-30 23:00:00 19.1 11 Norte 20 Norte 0 -- -- 65
2018-08-30 22:00:00 20.2 5 Oeste 19 Norte 0 -- -- 62
2018-08-30 21:00:00 21.5 9 Norte 24 Norte 0 -- -- 59
2018-08-30 20:00:00 24.1 10 Norte 23 Nordeste 0 -- -- 53
2018-08-30 19:00:00 25.8 10 Norte 25 Norte 0 -- -- 49
2018-08-30 18:00:00 28.4 12 Norte 27 Norte 0 -- -- 42
2018-08-30 17:00:00 30 8 Nordeste 17 Este 0 -- -- 41
2018-08-30 16:00:00 29.6 3 Norte 11 Nordeste 0 -- -- 41
2018-08-30 15:00:00 28.2 4 Nordeste 10 Sur 0 -- -- 45
2018-08-30 14:00:00 26 4 Este 12 Nordeste 0 -- -- 51
2018-08-30 13:00:00 25.1 6 Nordeste 14 Nordeste 0 -- -- 53
2018-08-30 12:00:00 22.5 8 Nordeste 18 Este 0 -- -- 59
2018-08-30 11:00:00 20.6 7 Este 18 Este 0 -- -- 65
2018-08-30 10:00:00 18.8 12 Este 19 Este 0 -- -- 70
2018-08-30 09:00:00 17.4 11 Este 19 Este 0 -- -- 76
2018-08-30 08:00:00 16.3 8 Sudeste 13 Este 0 -- -- 80
2018-08-30 07:00:00 15.9 6 Sudeste 10 Este 0 -- -- 81
2018-08-30 06:00:00 16.1 3 Sudeste 9 Este 0 -- -- 80
2018-08-30 05:00:00 16.8 0 Calma 11 Nordeste 0 -- -- 78
2018-08-30 04:00:00 17.3 4 Norte 12 Nordeste 0 -- -- 77
2018-08-30 03:00:00 17.6 8 Norte 23 Noroeste 0 -- -- 77
2018-08-30 02:00:00 18.1 6 Norte 16 Norte 0 -- -- 77
2018-08-30 01:00:00 18.8 9 Norte 22 Norte 0 -- -- 76
2018-08-30 00:00:00 19.3 5 Norte 21 Noroeste 0 -- -- 74
2018-08-29 23:00:00 19.8 8 Norte 27 Noroeste 0 -- -- 73
2018-08-29 22:00:00 20.6 9 Norte 26 Noroeste 0 -- -- 70
2018-08-29 21:00:00 21.9 15 Noroeste 34 Norte 0 -- -- 66
2018-08-29 20:00:00 24.5 15 Norte 36 Norte 0 -- -- 55
2018-08-29 19:00:00 26 17 Norte 39 Noroeste 0 -- -- 49
2018-08-29 18:00:00 27.5 19 Norte 35 Norte 0 -- -- 45
2018-08-29 17:00:00 28.1 19 Norte 33 Nordeste 0 -- -- 45
2018-08-29 16:00:00 29 15 Norte 30 Norte 0 -- -- 43
2018-08-29 15:00:00 29.3 10 Noroeste 24 Norte 0 -- -- 43
2018-08-29 14:00:00 28.6 12 Noroeste 24 Norte 0 -- -- 44
2018-08-29 13:00:00 27.6 13 Norte 27 Noroeste 0 -- -- 47
2018-08-29 12:00:00 26.8 14 Nordeste 27 Nordeste 0 -- -- 48
2018-08-29 11:00:00 25.1 10 Nordeste 18 Nordeste 0 -- -- 53
2018-08-29 10:00:00 22.8 6 Este 18 Este 0 -- -- 59
2018-08-29 09:00:00 20.2 12 Este 19 Este 0 -- -- 67
2018-08-29 08:00:00 18.1 10 Sudeste 17 Sudeste 0 -- -- 73
2018-08-29 07:00:00 17.8 8 Sudeste 15 Este 0 -- -- 72
2018-08-29 06:00:00 18 8 Sudeste 12 Sudeste 0 -- -- 71
2018-08-29 05:00:00 18.5 3 Norte 13 Sudeste 0 -- -- 72
2018-08-29 04:00:00 19.6 9 Sudeste 15 Sudeste 0 -- -- 69
2018-08-29 03:00:00 20.1 6 Sudeste 17 Este 0 -- -- 67
2018-08-29 02:00:00 20.7 8 Sudeste 16 Sur 0 -- -- 66
2018-08-29 01:00:00 21.2 3 Sur 17 Sudeste 0 -- -- 66
2018-08-29 00:00:00 22.4 9 Sudeste 27 Norte 0 -- -- 62
2018-08-28 23:00:00 25.9 9 Norte 30 Este 0 -- -- 55
2018-08-28 22:00:00 27.3 15 Sudeste 64 Sudeste 0 -- -- 54
2018-08-28 21:00:00 28.1 27 Sur 51 Sur 0 -- -- 54
2018-08-28 20:00:00 31.2 24 Sudeste 42 Sudeste 0 -- -- 43
2018-08-28 19:00:00 32.5 9 Sudeste 33 Sudeste 0 -- -- 37
2018-08-28 18:00:00 34 16 Sudeste 34 Sudeste 0 -- -- 34
2018-08-28 17:00:00 33.9 21 Sudeste 41 Sudeste 0 -- -- 35
2018-08-28 16:00:00 33.8 21 Sur 41 Sur 0 -- -- 37
2018-08-28 15:00:00 33.8 19 Sur 33 Sur 0 -- -- 37
2018-08-28 14:00:00 32.2 12 Este 37 Sudeste 0 -- -- 41
2018-08-28 13:00:00 31.2 14 Sudeste 34 Sur 0 -- -- 44
2018-08-28 12:00:00 28.9 5 Norte 10 Noroeste 0 -- -- 53
2018-08-28 11:00:00 25 5 Noroeste 9 Nordeste 0 -- -- 60
2018-08-28 10:00:00 22 4 Nordeste 13 Nordeste 0 -- -- 63
2018-08-28 09:00:00 18.7 3 Sudoeste 10 Sur 0 -- -- 73
2018-08-28 08:00:00 17.7 5 Sudoeste 9 Sur 0 -- -- 74
2018-08-28 07:00:00 17.6 5 Sudoeste 8 Sudoeste 0 -- -- 74
2018-08-28 06:00:00 17.9 3 Sudoeste 8 Sur 0 -- -- 73
2018-08-28 05:00:00 18.7 5 Sudoeste 6 Sudoeste 0 -- -- 71
2018-08-28 04:00:00 19.2 0 Calma 9 Sudoeste 0 -- -- 69
2018-08-28 03:00:00 20 2 Este 4 Este 0 -- -- 66
2018-08-28 02:00:00 20.6 0 Calma 5 Este 0 -- -- 64
2018-08-28 01:00:00 21.2 3 Sudeste 7 Sudoeste 0 -- -- 64
2018-08-28 00:00:00 22.5 0 Calma 12 Sur 0 -- -- 57
2018-08-27 23:00:00 23.4 5 Sudoeste 12 Sur 0 -- -- 52
2018-08-27 22:00:00 25.9 6 Sur 11 Sur 0 -- -- 44
2018-08-27 21:00:00 27.6 4 Sudeste 13 Sur 0 -- -- 40
2018-08-27 20:00:00 32.7 3 Nordeste 8 Este 0 -- -- 31
2018-08-27 19:00:00 33.6 4 Nordeste 8 Nordeste 0 -- -- 30
2018-08-27 18:00:00 33.7 4 Nordeste 13 Este 0 -- -- 30
2018-08-27 17:00:00 33.5 5 Sudeste 17 Sudoeste 0 -- -- 30
2018-08-27 16:00:00 33.1 8 Sur 19 Sur 0 -- -- 31
2018-08-27 15:00:00 32.3 9 Sur 19 Sur 0 -- -- 32
2018-08-27 14:00:00 30.8 7 Nordeste 12 Nordeste 0 -- -- 35
2018-08-27 13:00:00 27.8 5 Nordeste 9 Nordeste 0 -- -- 39
2018-08-27 12:00:00 24.6 4 Nordeste 10 Este 0 -- -- 47
2018-08-27 11:00:00 22 2 Noroeste 13 Este 0 -- -- 55
2018-08-27 10:00:00 20.1 8 Este 14 Este 0 -- -- 60
2018-08-27 09:00:00 17.2 3 Sudeste 9 Sudeste 0 -- -- 71
2018-08-27 08:00:00 14.8 4 Sudeste 9 Este 0 -- -- 80
2018-08-27 07:00:00 14.6 5 Sudeste 8 Sudeste 0 -- -- 80
2018-08-27 06:00:00 15.5 0 Calma 9 Este 0 -- -- 76
2018-08-27 05:00:00 16.1 4 Sudeste 6 Sudeste 0 -- -- 73
2018-08-27 04:00:00 17.9 4 Sudeste 13 Sudeste 0 -- -- 67
2018-08-27 03:00:00 18.7 8 Sudeste 17 Este 0 -- -- 64
2018-08-27 02:00:00 19.4 9 Sudeste 15 Sudeste 0 -- -- 60
2018-08-27 01:00:00 19.9 3 Sudeste 9 Nordeste 0 -- -- 58
2018-08-27 00:00:00 20.9 2 Sudeste 6 Este 0 -- -- 56
2018-08-26 23:00:00 21.3 3 Nordeste 12 Este 0 -- -- 57
2018-08-26 22:00:00 22.4 7 Sudeste 11 Nordeste 0 -- -- 56
2018-08-26 21:00:00 25.1 4 Sudoeste 19 Norte 0 -- -- 51
2018-08-26 20:00:00 28.4 7 Norte 19 Norte 0 -- -- 39
2018-08-26 19:00:00 29.2 10 Nordeste 15 Nordeste 0 -- -- 37
2018-08-26 18:00:00 29.9 6 Noroeste 14 Noroeste 0 -- -- 34
2018-08-26 17:00:00 29 6 Nordeste 13 Nordeste 0 -- -- 36
2018-08-26 16:00:00 28.5 5 Oeste 12 Sudoeste 0 -- -- 38
2018-08-26 15:00:00 26.7 6 Este 14 Nordeste 0 -- -- 42
2018-08-26 14:00:00 24.8 6 Norte 16 Oeste 0 -- -- 43
2018-08-26 13:00:00 23.5 6 Norte 12 Noroeste 0 -- -- 42
2018-08-26 12:00:00 21.3 5 Nordeste 12 Nordeste 0 -- -- 48
2018-08-26 11:00:00 19.1 5 Nordeste 9 Nordeste 0 -- -- 59
2018-08-26 10:00:00 16.3 3 Norte 6 Norte 0 -- -- 67
2018-08-26 09:00:00 13.7 2 Norte 6 Nordeste 0 -- -- 76
2018-08-26 08:00:00 13.6 7 Este 14 Este 0 -- -- 79
2018-08-26 07:00:00 12.9 8 Sudeste 14 Sudeste 0 -- -- 81
2018-08-26 06:00:00 14 4 Oeste 13 Norte 0 -- -- 77
2018-08-26 05:00:00 14.3 6 Oeste 16 Noroeste 0 -- -- 75
2018-08-26 04:00:00 14.6 6 Oeste 20 Noroeste 0 -- -- 72
2018-08-26 03:00:00 14.8 9 Noroeste 20 Noroeste 0 -- -- 73
2018-08-26 02:00:00 15 11 Noroeste 24 Norte 0 -- -- 70
2018-08-26 01:00:00 15.6 11 Noroeste 29 Norte 0 -- -- 67
2018-08-26 00:00:00 15.9 11 Norte 29 Nordeste 0 -- -- 65
2018-08-25 23:00:00 16.5 16 Norte 29 Noroeste 0 -- -- 63
2018-08-25 22:00:00 17 10 Norte 32 Norte 0 -- -- 60
2018-08-25 21:00:00 18 18 Norte 31 Noroeste 0 -- -- 53
2018-08-25 20:00:00 19.7 16 Norte 35 Nordeste 0 -- -- 44
2018-08-25 19:00:00 21 20 Nordeste 45 Norte 0 -- -- 46
2018-08-25 18:00:00 22.5 21 Norte 40 Nordeste 0 -- -- 43
2018-08-25 17:00:00 23.4 20 Norte 34 Norte 0 -- -- 41
2018-08-25 16:00:00 24.2 17 Norte 35 Noroeste 0 -- -- 42
2018-08-25 15:00:00 23.7 20 Norte 37 Norte 0 -- -- 41
2018-08-25 14:00:00 22.5 21 Norte 36 Norte 0 -- -- 45
2018-08-25 13:00:00 22.7 22 Nordeste 39 Norte 0 -- -- 44
2018-08-25 12:00:00 21.3 19 Norte 36 Norte 0 -- -- 50
2018-08-25 11:00:00 20.4 20 Norte 40 Norte 0 -- -- 51
2018-08-25 10:00:00 18.3 18 Noroeste 35 Noroeste 0 -- -- 61
2018-08-25 09:00:00 17.3 13 Noroeste 24 Noroeste 0 -- -- 65
2018-08-25 08:00:00 15.6 10 Norte 19 Norte 0 -- -- 70
2018-08-25 07:00:00 15.1 8 Norte 17 Norte 0 -- -- 71
2018-08-25 06:00:00 14.9 8 Noroeste 21 Norte 0 -- -- 73
2018-08-25 05:00:00 15.4 10 Noroeste 23 Noroeste 0 -- -- 72
2018-08-25 04:00:00 15.7 11 Noroeste 27 Noroeste 0 -- -- 70
2018-08-25 03:00:00 16.1 10 Norte 25 Norte 0 -- -- 68
2018-08-25 02:00:00 16.4 12 Norte 28 Norte 0 -- -- 66
2018-08-25 01:00:00 16.9 11 Norte 23 Norte 0 -- -- 64
2018-08-25 00:00:00 17.4 8 Norte 30 Noroeste 0 -- -- 66
2018-08-24 23:00:00 17.8 10 Norte 23 Norte 0 -- -- 63
2018-08-24 22:00:00 18 10 Norte 30 Norte 0 -- -- 64
2018-08-24 21:00:00 18.4 8 Nordeste 36 Norte 0 -- -- 64
2018-08-24 20:00:00 20.1 15 Norte 39 Nordeste 0 -- -- 59
2018-08-24 19:00:00 21.4 17 Nordeste 42 Norte 0 -- -- 55
2018-08-24 18:00:00 22.9 22 Norte 42 Norte 0 -- -- 53
2018-08-24 17:00:00 24.7 18 Norte 42 Noroeste 0 -- -- 50
2018-08-24 16:00:00 24.8 19 Norte 37 Norte 0 -- -- 50
2018-08-24 15:00:00 25.5 14 Norte 35 Norte 0 -- -- 50
2018-08-24 14:00:00 24.8 14 Norte 41 Noroeste 0 -- -- 56
2018-08-24 13:00:00 23.4 19 Noroeste 32 Noroeste 0 -- -- 60
2018-08-24 12:00:00 22.6 10 Norte 25 Nordeste 0 -- -- 63
2018-08-24 11:00:00 21.2 10 Norte 24 Noroeste 0 -- -- 67
2018-08-24 10:00:00 20.8 10 Norte 19 Noroeste 0 -- -- 66
2018-08-24 09:00:00 19.5 5 Norte 15 Noroeste 0 -- -- 72
2018-08-24 08:00:00 17.4 6 Noroeste 15 Oeste 0 -- -- 76
2018-08-24 07:00:00 17.6 7 Noroeste 14 Oeste 0 -- -- 74
2018-08-24 06:00:00 18.4 7 Norte 23 Norte 0 -- -- 69
2018-08-24 05:00:00 18.8 12 Norte 23 Norte 0 -- -- 68
2018-08-24 04:00:00 19.1 7 Norte 34 Noroeste 0 -- -- 68
2018-08-24 03:00:00 19.3 8 Norte 27 Noroeste 0 -- -- 69
2018-08-24 02:00:00 19.8 8 Noroeste 26 Noroeste 0 -- -- 67
2018-08-24 01:00:00 20.1 13 Norte 26 Norte 0 -- -- 69
2018-08-24 00:00:00 20.4 5 Oeste 25 Noroeste 0 -- -- 68
2018-08-23 23:00:00 20.7 5 Noroeste 24 Noroeste 0 -- -- 67
2018-08-23 22:00:00 21.4 13 Oeste 26 Oeste 0 -- -- 66
2018-08-23 21:00:00 22.7 9 Noroeste 26 Noroeste 0 -- -- 62
2018-08-23 20:00:00 25 15 Noroeste 30 Noroeste 0 -- -- 56
2018-08-23 19:00:00 27.1 18 Noroeste 32 Norte 0 -- -- 51
2018-08-23 18:00:00 28.1 15 Norte 37 Oeste 0 -- -- 49
2018-08-23 17:00:00 29.4 19 Norte 36 Noroeste 0 -- -- 48
2018-08-23 16:00:00 30.4 14 Norte -- -- -- -- -- 45
2018-08-23 15:00:00 -- -- -- -- -- -- -- -- --
2018-08-23 14:00:00 -- -- -- -- -- -- -- -- --
2018-08-23 13:00:00 -- -- -- -- -- -- -- -- --
2018-08-23 12:00:00 -- -- -- -- -- -- -- -- --
2018-08-23 11:00:00 -- -- -- -- -- -- -- -- --
2018-08-23 10:00:00 -- -- -- -- -- -- -- -- --
2018-08-23 09:00:00 -- -- -- -- -- -- -- -- --
2018-08-23 08:00:00 -- -- -- -- -- -- -- -- --
2018-08-23 07:00:00 -- -- -- -- -- -- -- -- --
2018-08-23 06:00:00 -- -- -- -- -- -- -- -- --
2018-08-23 05:00:00 -- -- -- -- -- -- -- -- --
2018-08-23 04:00:00 -- -- -- -- -- -- -- -- --
2018-08-23 03:00:00 -- -- -- -- -- -- -- -- --
2018-08-23 02:00:00 -- -- -- -- -- -- -- -- --
2018-08-23 01:00:00 -- -- -- -- -- -- -- -- --
2018-08-23 00:00:00 -- -- -- -- -- -- -- -- --